Glendora, CA (91741)

12:34 AM PDT on July 30, 2016 (GMT -0700)
Sierra Madre/Loraine | | Change Station

Elev 961 ft 34.15 °N, 117.85 °W | Updated 2 minutes ago

Partly Cloudy
Partly Cloudy
72.9 °F
Feels Like 75 °F
N
0.0
Wind Variable Wind from SSW
Gusts 4.0 mph

Today
High -- | Low -- °F
--% Chance of Precip.
Yesterday
High -- | Low -- °F
Precip. -- in
Pressure 29.77 in
Visibility 10.0 miles
Clouds Few 12000 ft
Heat Index 75 °F
Dew Point 62 °F
Humidity 68%
Rainfall 0.00 in
Snow Depth Not available.
6:01 AM 7:53 PM
Waning Crescent, 15% visible
METAR KONT 300653Z 26007KT 10SM FEW120 24/16 A2983 RMK AO2 SLP081 T02390156
Pressure 29.77 in
Visibility 10.0 miles
Clouds Few 12000 ft
Heat Index 75 °F
Dew Point 62 °F
Humidity 68%
Rainfall 0.00 in
Snow Depth Not available.
6:01 AM 7:53 PM
Waning Crescent, 15% visible
METAR KONT 300653Z 26007KT 10SM FEW120 24/16 A2983 RMK AO2 SLP081 T02390156

10-Day Weather Forecast

Almanac

Astronomy

Jul. 30, 2016 Rise Set
Actual Time
Civil Twilight
Nautical Twilight
Astronomical Twilight
Moon
Length of Visible Light
Length of Day
Tomorrow will be .
, % of the Moon is Illuminated

Today's Extremes

State Highs State Lows

Community

WunderPhotos

Upload Photos

1,928,508 photos uploaded!

WunderBlog® & News

Nearby

Air Quality

  Air Quality AQ Index Pollutant
Not available.

Snow Depth

Station Depth Elevation

Earthquake Activity

City Distance Mag. Time & Date
Minimum magnitude displayed is 2.5.

Coastal Water Temperatures

Place Temperature

Stations

Nearby Weather Stations

Station Location Temp. Windchill Dew Point Humidity Wind Precip. Elev Updated Type
                   

Watches & Warnings

There are currently no watches in effect.